Time;durP1;ratioP1;P1;durP2;ratioP2;P2;SDS_P1;SDS_P2;PMS_P1;PMS_P2;Temp;Humidity;BMP_temperature;BMP_pressure;BME280_temperature;BME280_humidity;BME280_pressure;Samples;Min_cycle;Max_cycle;Signal;HPM_P1;HPM_P2
2021/12/01 00:05:31;;;;;;;0.97;0.40;;;11.40;99.90;;;;;;5097902;23;20529;-85
2021/12/01 00:08:07;;;;;;;0.50;0.40;;;11.70;99.90;;;;;;4962703;28;21984;-85
2021/12/01 00:10:54;;;;;;;0.50;0.40;;;11.70;99.90;;;;;;4945623;28;20506;-87
2021/12/01 00:13:47;;;;;;;0.40;0.40;;;11.70;99.90;;;;;;4946153;28;20485;-85
2021/12/01 00:17:28;;;;;;;0.87;0.40;;;11.70;99.90;;;;;;4891420;29;20462;-85
2021/12/01 00:31:56;;;;;;;0.40;0.40;;;11.70;99.90;;;;;;4915759;29;20478;-86
2021/12/01 00:42:20;;;;;;;0.40;0.30;;;11.70;99.90;;;;;;4862370;29;20492;-87
2021/12/01 00:44:55;;;;;;;0.50;0.37;;;11.70;99.90;;;;;;4851790;29;21021;-88
2021/12/01 00:47:53;;;;;;;0.40;0.40;;;11.60;99.90;;;;;;4841357;29;20527;-85
2021/12/01 00:50:30;;;;;;;0.40;0.40;;;11.70;99.90;;;;;;4835973;29;20471;-85
2021/12/01 00:53:02;;;;;;;0.53;0.40;;;11.50;99.90;;;;;;4881123;29;20508;-86
2021/12/01 00:55:32;;;;;;;0.40;0.40;;;11.40;99.90;;;;;;4902424;29;20476;-86
2021/12/01 00:58:03;;;;;;;0.60;0.50;;;11.30;99.90;;;;;;4901898;29;20549;-87
2021/12/01 01:00:31;;;;;;;0.63;0.63;;;11.70;99.90;;;;;;4909405;29;20523;-86
2021/12/01 01:02:59;;;;;;;2.70;0.60;;;11.70;99.90;;;;;;4935003;23;20512;-87
2021/12/01 01:05:31;;;;;;;0.83;0.43;;;11.70;99.90;;;;;;4934984;28;20472;-87
2021/12/01 01:07:59;;;;;;;0.40;0.40;;;11.60;99.90;;;;;;4930501;28;21043;-85
2021/12/01 01:10:56;;;;;;;0.43;0.43;;;11.70;99.90;;;;;;4933850;28;21346;-87
2021/12/01 01:16:24;;;;;;;0.60;0.60;;;11.60;99.90;;;;;;4918853;29;20538;-87
2021/12/01 01:19:02;;;;;;;1.30;0.73;;;11.80;99.90;;;;;;4918955;29;20476;-86
2021/12/01 01:21:39;;;;;;;1.60;1.10;;;11.80;99.90;;;;;;4934381;28;20578;-88
2021/12/01 01:24:18;;;;;;;1.70;1.00;;;11.70;99.90;;;;;;4921487;28;20466;-86
2021/12/01 01:26:48;;;;;;;0.80;0.80;;;11.70;99.90;;;;;;4879690;29;20527;-87
2021/12/01 01:29:20;;;;;;;2.20;1.33;;;11.60;99.90;;;;;;4933118;28;20577;-86
2021/12/01 01:31:53;;;;;;;1.33;0.80;;;11.60;99.90;;;;;;4928445;29;20488;-87
2021/12/01 01:34:27;;;;;;;0.53;0.53;;;11.50;99.90;;;;;;4919717;29;20523;-87
2021/12/01 01:37:20;;;;;;;0.57;0.40;;;11.40;99.90;;;;;;4917693;29;20468;-87
2021/12/01 01:39:51;;;;;;;0.70;0.70;;;11.20;99.90;;;;;;4915619;29;20471;-88
2021/12/01 01:42:32;;;;;;;0.60;0.60;;;11.10;99.90;;;;;;4914614;29;20469;-86
2021/12/01 01:44:59;;;;;;;0.50;0.50;;;11.20;99.90;;;;;;4913725;29;20458;-87
2021/12/01 01:47:28;;;;;;;0.50;0.50;;;11.10;99.90;;;;;;4914168;29;20556;-87
2021/12/01 01:50:26;;;;;;;0.50;0.40;;;10.90;99.90;;;;;;4912941;29;21046;-87
2021/12/01 01:52:43;;;;;;;0.60;0.43;;;11.10;99.90;;;;;;4909336;29;21402;-87
2021/12/01 01:55:09;;;;;;;0.63;0.63;;;11.20;99.90;;;;;;4911937;29;22168;-87
2021/12/01 01:57:36;;;;;;;0.70;0.57;;;11.20;99.90;;;;;;4912141;29;20473;-86
2021/12/01 02:00:08;;;;;;;0.53;0.53;;;11.50;99.90;;;;;;4914873;29;20458;-87
2021/12/01 02:02:35;;;;;;;0.40;0.40;;;11.50;99.90;;;;;;4926604;28;20912;-86
2021/12/01 02:05:05;;;;;;;1.17;0.50;;;11.40;99.90;;;;;;4913055;29;20469;-86
2021/12/01 02:07:31;;;;;;;0.43;0.40;;;11.40;99.90;;;;;;4914055;29;20479;-87
2021/12/01 02:09:58;;;;;;;0.83;0.80;;;11.40;99.90;;;;;;4913491;29;20474;-86
2021/12/01 02:12:25;;;;;;;0.60;0.60;;;11.30;99.90;;;;;;4928704;28;20495;-87
2021/12/01 02:14:56;;;;;;;1.60;0.60;;;11.10;99.90;;;;;;4927817;28;20481;-87
2021/12/01 02:17:31;;;;;;;0.60;0.60;;;11.20;99.90;;;;;;4914859;29;20465;-86
2021/12/01 02:19:57;;;;;;;0.50;0.50;;;11.30;99.90;;;;;;4909927;29;20462;-87
2021/12/01 02:22:35;;;;;;;0.50;0.50;;;11.30;99.90;;;;;;4912757;29;20505;-86
2021/12/01 02:25:09;;;;;;;0.60;0.50;;;11.40;99.90;;;;;;4912359;29;20468;-86
2021/12/01 02:27:35;;;;;;;0.50;0.50;;;11.30;99.90;;;;;;4910167;29;20469;-86
2021/12/01 02:30:11;;;;;;;0.53;0.53;;;11.30;99.90;;;;;;4909119;29;20466;-86
2021/12/01 02:32:38;;;;;;;3.00;0.90;;;11.10;99.90;;;;;;4910125;28;21506;-86
2021/12/01 02:35:06;;;;;;;0.70;0.70;;;11.00;99.90;;;;;;4908935;29;20830;-86
2021/12/01 02:37:33;;;;;;;0.70;0.50;;;11.00;99.90;;;;;;4912775;29;21868;-87
2021/12/01 02:40:00;;;;;;;0.90;0.70;;;11.00;99.90;;;;;;4909985;29;20469;-86
2021/12/01 02:42:27;;;;;;;0.80;0.80;;;10.90;99.90;;;;;;4909676;29;20509;-87
2021/12/01 02:44:54;;;;;;;0.80;0.70;;;10.90;99.90;;;;;;4913177;29;20466;-87
2021/12/01 02:47:24;;;;;;;0.70;0.70;;;10.90;99.90;;;;;;4913733;29;21919;-85
2021/12/01 02:49:54;;;;;;;0.80;0.80;;;10.90;99.90;;;;;;4914199;29;20531;-86
2021/12/01 02:52:23;;;;;;;3.93;0.80;;;10.90;99.90;;;;;;5123860;23;21014;-86
2021/12/01 02:54:54;;;;;;;0.60;0.60;;;10.90;99.90;;;;;;4933456;28;20471;-87
2021/12/01 02:57:27;;;;;;;1.47;0.70;;;10.90;99.90;;;;;;4931879;28;20699;-87
2021/12/01 02:59:54;;;;;;;0.90;0.90;;;10.90;99.90;;;;;;4932917;28;20567;-87
2021/12/01 03:02:21;;;;;;;1.40;1.00;;;10.90;99.90;;;;;;4921875;28;20500;-86
2021/12/01 03:04:48;;;;;;;1.00;1.00;;;10.90;99.90;;;;;;4916596;29;20466;-86
2021/12/01 03:07:15;;;;;;;2.27;1.30;;;10.80;99.90;;;;;;4912743;29;20461;-87
2021/12/01 03:09:42;;;;;;;1.33;1.10;;;10.90;99.90;;;;;;4913655;28;20471;-87
2021/12/01 03:12:09;;;;;;;0.80;0.80;;;10.90;99.90;;;;;;4910970;29;20490;-86
2021/12/01 03:15:21;;;;;;;1.40;1.30;;;11.00;99.90;;;;;;4913555;29;20568;-86
2021/12/01 03:29:46;;;;;;;1.17;1.13;;;10.80;99.90;;;;;;4960566;28;20487;-85
2021/12/01 03:32:47;;;;;;;1.37;1.27;;;10.70;99.90;;;;;;4946271;28;20903;-87
2021/12/01 03:35:41;;;;;;;1.60;1.50;;;10.80;99.90;;;;;;4936174;28;20457;-87
2021/12/01 03:38:52;;;;;;;;;;;;;;;;;;;;;
2021/12/01 03:42:18;;;;;;;2.20;2.10;;;10.80;99.90;;;;;;4935230;28;21017;-87
2021/12/01 03:45:48;;;;;;;1.33;1.23;;;10.80;99.90;;;;;;4930648;28;20450;-87
2021/12/01 03:48:43;;;;;;;1.40;1.30;;;10.70;99.90;;;;;;4906117;28;20527;-87
2021/12/01 03:51:43;;;;;;;2.07;1.70;;;10.80;99.90;;;;;;4942809;28;20437;-86
2021/12/01 03:55:25;;;;;;;2.83;1.80;;;10.70;99.90;;;;;;4942779;28;20456;-87
2021/12/01 03:58:31;;;;;;;1.77;1.67;;;10.50;99.90;;;;;;4939836;28;20559;-87
2021/12/01 04:02:15;;;;;;;2.50;2.03;;;10.60;99.90;;;;;;4908456;28;20830;-86
2021/12/01 04:05:48;;;;;;;1.60;1.50;;;10.50;99.90;;;;;;4836999;29;20489;-86
2021/12/01 04:08:31;;;;;;;2.60;1.73;;;10.80;99.90;;;;;;4825077;29;20467;-86
2021/12/01 04:13:56;;;;;;;2.90;2.63;;;10.80;99.90;;;;;;4207955;26;20470;-86
2021/12/01 04:17:40;;;;;;;;;;;;;;;;;;;;;
2021/12/01 04:21:06;;;;;;;2.57;2.40;;;10.80;99.90;;;;;;4935945;28;20432;-86
2021/12/01 04:24:16;;;;;;;2.63;2.43;;;10.80;99.90;;;;;;4916718;29;20587;-86
2021/12/01 04:36:32;;;;;;;2.60;2.40;;;10.70;99.90;;;;;;4918534;28;21480;-86
2021/12/01 04:39:07;;;;;;;3.57;2.80;;;10.70;99.90;;;;;;4903110;28;20518;-86
2021/12/01 04:41:50;;;;;;;3.17;2.87;;;10.60;99.90;;;;;;4918351;28;20501;-87
2021/12/01 04:44:19;;;;;;;2.10;1.90;;;10.70;99.90;;;;;;4902456;29;20575;-89
2021/12/01 04:46:48;;;;;;;2.63;2.43;;;10.70;99.90;;;;;;4909539;29;20990;-85
2021/12/01 04:49:19;;;;;;;2.90;2.70;;;10.60;99.90;;;;;;4906147;29;20472;-87
2021/12/01 04:51:51;;;;;;;3.20;2.90;;;10.60;99.90;;;;;;4902584;28;20489;-85
2021/12/01 04:54:18;;;;;;;4.40;2.90;;;10.50;99.90;;;;;;4913027;29;20464;-85
2021/12/01 04:56:52;;;;;;;3.33;2.90;;;10.60;99.90;;;;;;4907474;28;20822;-86
2021/12/01 04:59:20;;;;;;;3.27;2.77;;;10.50;99.90;;;;;;4903816;29;20917;-86
2021/12/01 05:01:52;;;;;;;3.20;2.97;;;10.50;99.90;;;;;;4923475;28;20528;-86
2021/12/01 05:04:19;;;;;;;2.93;2.37;;;10.40;99.90;;;;;;4910581;29;20465;-87
2021/12/01 05:06:51;;;;;;;3.00;2.27;;;10.40;99.90;;;;;;4924005;28;20581;-88
2021/12/01 05:09:18;;;;;;;3.07;2.87;;;10.40;99.90;;;;;;4908738;29;20457;-87
2021/12/01 05:11:56;;;;;;;3.43;2.57;;;10.40;99.90;;;;;;4912063;28;20491;-88
2021/12/01 05:14:27;;;;;;;3.10;2.80;;;10.30;99.90;;;;;;4910440;29;20468;-88
2021/12/01 05:17:02;;;;;;;2.67;2.33;;;10.40;99.90;;;;;;4910464;28;20464;-88
2021/12/01 05:19:29;;;;;;;2.97;2.60;;;10.30;99.90;;;;;;4924867;28;20487;-87
2021/12/01 05:22:14;;;;;;;2.63;2.43;;;10.20;99.90;;;;;;4928292;28;20493;-88
2021/12/01 05:24:40;;;;;;;3.83;2.40;;;10.30;99.90;;;;;;4909925;29;20458;-87
2021/12/01 05:27:24;;;;;;;2.10;2.00;;;10.40;99.90;;;;;;4925346;28;20462;-85
2021/12/01 05:29:51;;;;;;;2.30;2.10;;;10.30;99.90;;;;;;4926849;28;20454;-86
2021/12/01 05:32:27;;;;;;;1.73;1.47;;;10.40;99.90;;;;;;4910383;29;20535;-86
2021/12/01 05:35:11;;;;;;;2.00;1.80;;;10.40;99.90;;;;;;4909831;29;20517;-87
2021/12/01 05:37:38;;;;;;;2.00;1.90;;;10.40;99.90;;;;;;4927978;28;20472;-86
2021/12/01 05:40:11;;;;;;;2.00;1.63;;;10.40;99.90;;;;;;4915728;29;20561;-88
2021/12/01 05:42:50;;;;;;;3.20;2.13;;;10.40;99.90;;;;;;4909647;28;20498;-87
2021/12/01 05:45:28;;;;;;;3.50;1.90;;;10.40;99.90;;;;;;4895378;29;20528;-87
2021/12/01 05:48:04;;;;;;;1.90;1.80;;;10.40;99.90;;;;;;4911043;28;20551;-86
2021/12/01 05:50:34;;;;;;;1.73;1.30;;;10.30;99.90;;;;;;4909418;29;20471;-86
2021/12/01 05:53:04;;;;;;;4.53;1.40;;;10.40;99.90;;;;;;4908262;29;20489;-86
2021/12/01 05:55:31;;;;;;;1.87;1.10;;;10.30;99.90;;;;;;4909431;29;20572;-86
2021/12/01 05:57:59;;;;;;;1.80;1.70;;;10.40;99.90;;;;;;4907767;28;20489;-85
2021/12/01 06:00:26;;;;;;;1.70;1.40;;;10.30;99.90;;;;;;4838299;29;21893;-88
2021/12/01 06:03:14;;;;;;;2.63;1.87;;;10.40;99.90;;;;;;4932861;28;20560;-86
2021/12/01 06:06:04;;;;;;;1.43;1.20;;;10.40;99.90;;;;;;4909190;28;20483;-88
2021/12/01 06:08:32;;;;;;;2.17;1.80;;;10.40;99.90;;;;;;4917885;28;20456;-87
2021/12/01 06:11:00;;;;;;;1.83;1.60;;;10.40;99.90;;;;;;4932136;28;20972;-86
2021/12/01 06:13:44;;;;;;;1.27;1.17;;;10.30;99.90;;;;;;4917936;28;20537;-87
2021/12/01 06:16:14;;;;;;;1.40;1.30;;;10.30;99.90;;;;;;4932486;28;20461;-86
2021/12/01 06:18:43;;;;;;;1.47;1.37;;;10.40;99.90;;;;;;4939822;28;20461;-87
2021/12/01 06:21:13;;;;;;;2.00;1.40;;;10.40;99.90;;;;;;4928584;28;20608;-88
2021/12/01 06:23:40;;;;;;;1.40;1.30;;;10.40;99.90;;;;;;4928258;28;20484;-87
2021/12/01 06:26:11;;;;;;;1.57;1.47;;;10.50;99.90;;;;;;4915722;29;20491;-86
2021/12/01 06:28:51;;;;;;;1.03;0.93;;;10.40;99.90;;;;;;4906675;29;20462;-87
2021/12/01 06:31:50;;;;;;;1.53;1.40;;;10.40;99.90;;;;;;4912338;29;20462;-87
2021/12/01 06:34:36;;;;;;;1.67;1.27;;;10.50;99.90;;;;;;4911177;29;20869;-86
2021/12/01 06:37:05;;;;;;;2.53;1.17;;;10.40;99.90;;;;;;4913307;29;20466;-86
2021/12/01 06:39:51;;;;;;;1.20;1.10;;;10.50;99.90;;;;;;4907972;28;20483;-87
2021/12/01 06:42:27;;;;;;;1.27;0.87;;;10.40;99.90;;;;;;4921861;28;21812;-87
2021/12/01 06:45:10;;;;;;;2.40;1.10;;;10.40;99.90;;;;;;4904397;28;20466;-87
2021/12/01 06:47:38;;;;;;;1.23;0.90;;;10.50;99.90;;;;;;4908833;28;20493;-87
2021/12/01 06:50:23;;;;;;;1.90;1.17;;;10.50;99.90;;;;;;4907420;29;20554;-86
2021/12/01 06:52:50;;;;;;;1.10;1.00;;;10.50;99.90;;;;;;4907351;28;22163;-86
2021/12/01 06:55:20;;;;;;;1.20;0.97;;;10.40;99.90;;;;;;4907319;29;20669;-85
2021/12/01 06:57:48;;;;;;;0.97;0.90;;;10.40;99.90;;;;;;4921666;28;20527;-85
2021/12/01 07:00:41;;;;;;;0.97;0.80;;;10.60;99.90;;;;;;4909781;29;20477;-86
2021/12/01 07:03:17;;;;;;;0.70;0.70;;;10.50;99.90;;;;;;4904877;29;20958;-86
2021/12/01 07:05:45;;;;;;;0.90;0.90;;;10.60;99.90;;;;;;4906877;28;20462;-86
2021/12/01 07:08:17;;;;;;;0.60;0.60;;;10.60;99.90;;;;;;4909529;29;20469;-86
2021/12/01 07:10:47;;;;;;;0.50;0.50;;;10.60;99.90;;;;;;4920333;28;20674;-85
2021/12/01 07:13:23;;;;;;;0.60;0.50;;;10.60;99.90;;;;;;4901811;29;20576;-86
2021/12/01 07:16:04;;;;;;;0.50;0.50;;;10.70;99.90;;;;;;4905777;28;20450;-86
2021/12/01 07:18:36;;;;;;;0.63;0.63;;;10.70;99.90;;;;;;4911211;28;20586;-86
2021/12/01 07:21:15;;;;;;;;;;;;;;;;;;;;;
2021/12/01 07:24:07;;;;;;;0.63;0.60;;;10.70;99.90;;;;;;4930434;28;20510;-85
2021/12/01 07:27:01;;;;;;;0.90;0.80;;;10.70;99.90;;;;;;4917787;28;20437;-86
2021/12/01 07:29:30;;;;;;;0.60;0.60;;;10.80;99.90;;;;;;4911918;29;21118;-86
2021/12/01 07:31:57;;;;;;;0.90;0.60;;;10.80;99.90;;;;;;4920205;28;20478;-86
2021/12/01 07:34:27;;;;;;;0.60;0.60;;;10.80;99.90;;;;;;4903691;29;20554;-89
2021/12/01 07:36:54;;;;;;;0.50;0.50;;;10.80;99.90;;;;;;4907498;28;20534;-86
2021/12/01 07:39:24;;;;;;;0.70;0.50;;;10.80;99.90;;;;;;4901888;29;20465;-86
2021/12/01 07:41:53;;;;;;;0.60;0.50;;;10.80;99.90;;;;;;4920705;28;20496;-86
2021/12/01 07:44:22;;;;;;;0.77;0.50;;;10.80;99.90;;;;;;4906437;29;20463;-84
2021/12/01 07:46:55;;;;;;;0.63;0.50;;;10.80;99.90;;;;;;4903556;28;20464;-86
2021/12/01 07:49:27;;;;;;;0.60;0.60;;;10.80;99.90;;;;;;4900151;29;20498;-86
2021/12/01 07:51:59;;;;;;;0.53;0.47;;;10.90;99.90;;;;;;4921111;28;20846;-86
2021/12/01 07:54:39;;;;;;;0.40;0.40;;;10.90;99.90;;;;;;4900501;29;20572;-86
2021/12/01 07:57:33;;;;;;;0.50;0.50;;;10.80;99.90;;;;;;4906729;29;20468;-86
2021/12/01 08:00:28;;;;;;;0.50;0.50;;;10.90;99.90;;;;;;4905016;29;20462;-87
2021/12/01 08:03:04;;;;;;;0.70;0.50;;;10.90;99.90;;;;;;4904845;28;20494;-87
2021/12/01 08:06:03;;;;;;;0.63;0.63;;;10.90;99.90;;;;;;4928179;28;20473;-87
2021/12/01 08:08:36;;;;;;;0.50;0.50;;;11.00;99.90;;;;;;4904157;29;20461;-86
2021/12/01 08:11:06;;;;;;;0.50;0.43;;;11.00;99.90;;;;;;4906587;29;20465;-87
2021/12/01 08:13:37;;;;;;;0.67;0.50;;;10.90;99.90;;;;;;4904937;29;20570;-87
2021/12/01 08:16:22;;;;;;;0.70;0.50;;;10.90;99.90;;;;;;4908902;29;20471;-87
2021/12/01 08:19:10;;;;;;;0.50;0.50;;;11.00;99.90;;;;;;4920287;28;20466;-87
2021/12/01 08:21:37;;;;;;;0.40;0.40;;;10.90;99.90;;;;;;4904750;28;20479;-87
2021/12/01 08:27:09;;;;;;;0.40;0.40;;;11.00;99.90;;;;;;4922460;28;20504;-86
2021/12/01 08:29:44;;;;;;;0.40;0.40;;;11.00;99.90;;;;;;4901196;28;20466;-85
2021/12/01 08:32:19;;;;;;;0.50;0.50;;;10.90;99.90;;;;;;4904290;29;20477;-87
2021/12/01 08:34:58;;;;;;;0.60;0.50;;;10.90;99.90;;;;;;4933192;28;20453;-87
2021/12/01 08:37:29;;;;;;;1.00;0.57;;;11.00;99.90;;;;;;4894842;29;20455;-89
2021/12/01 08:40:03;;;;;;;0.43;0.40;;;11.10;99.90;;;;;;4933623;28;20971;-87
2021/12/01 08:42:38;;;;;;;0.50;0.50;;;11.20;99.90;;;;;;4914004;29;20500;-86
2021/12/01 08:45:11;;;;;;;0.63;0.63;;;11.20;99.90;;;;;;4913897;29;20457;-86
2021/12/01 08:47:41;;;;;;;0.50;0.50;;;11.10;99.90;;;;;;4929473;28;20928;-86
2021/12/01 08:50:11;;;;;;;0.40;0.40;;;11.10;99.90;;;;;;4911989;29;20458;-86
2021/12/01 08:52:44;;;;;;;0.67;0.60;;;11.20;99.90;;;;;;4910202;28;20521;-86
2021/12/01 08:55:23;;;;;;;0.60;0.50;;;11.20;99.90;;;;;;4909566;29;20473;-86
2021/12/01 08:58:22;;;;;;;0.80;0.60;;;11.20;99.90;;;;;;4907490;28;20844;-87
2021/12/01 09:00:54;;;;;;;7.47;1.20;;;11.10;99.90;;;;;;4912239;28;20517;-87
2021/12/01 09:03:28;;;;;;;0.47;0.40;;;11.10;99.90;;;;;;4907452;29;20495;-86
2021/12/01 09:06:05;;;;;;;0.50;0.40;;;11.10;99.90;;;;;;4910883;29;20537;-87
2021/12/01 09:08:44;;;;;;;0.50;0.50;;;11.20;99.90;;;;;;4916273;28;20461;-86
2021/12/01 09:11:31;;;;;;;0.40;0.40;;;11.20;99.90;;;;;;4911679;29;20528;-86
2021/12/01 09:14:03;;;;;;;0.77;0.53;;;11.30;99.90;;;;;;4910799;29;20536;-87
2021/12/01 09:17:16;;;;;;;;;;;;;;;;;;;;;
2021/12/01 09:20:07;;;;;;;1.37;0.83;;;11.10;99.90;;;;;;4929228;28;20545;-85
2021/12/01 09:22:42;;;;;;;0.40;0.40;;;11.30;99.90;;;;;;4908458;28;20497;-86
2021/12/01 09:25:21;;;;;;;2.30;0.50;;;11.30;99.90;;;;;;4907728;29;20959;-86
2021/12/01 09:28:25;;;;;;;0.40;0.40;;;11.10;99.90;;;;;;4908158;28;20469;-88
2021/12/01 09:31:00;;;;;;;1.43;0.50;;;11.30;99.90;;;;;;4907382;29;20642;-88
2021/12/01 09:33:34;;;;;;;3.20;0.90;;;11.40;99.90;;;;;;4910476;29;20493;-88
2021/12/01 09:36:14;;;;;;;0.87;0.60;;;11.20;99.90;;;;;;4908240;29;20541;-87
2021/12/01 09:38:47;;;;;;;1.47;0.43;;;11.20;99.90;;;;;;4927412;28;21466;-86
2021/12/01 09:41:29;;;;;;;0.50;0.33;;;11.10;99.90;;;;;;4908724;29;20465;-86
2021/12/01 09:43:56;;;;;;;0.70;0.43;;;11.20;99.90;;;;;;4904136;28;20498;-87
2021/12/01 09:47:16;;;;;;;1.37;0.40;;;11.40;99.90;;;;;;4903873;29;20983;-86
2021/12/01 09:53:35;;;;;;;0.97;0.50;;;11.50;99.90;;;;;;5057417;23;21901;-86
2021/12/01 09:56:07;;;;;;;1.37;0.60;;;11.40;99.90;;;;;;4960097;28;20496;-85
2021/12/01 09:58:35;;;;;;;0.93;0.47;;;11.40;99.90;;;;;;4951716;28;20528;-89
2021/12/01 10:01:09;;;;;;;0.40;0.40;;;11.30;99.90;;;;;;4953658;28;20529;-86
2021/12/01 10:03:40;;;;;;;1.03;0.40;;;11.40;99.90;;;;;;4935773;28;20496;-86
2021/12/01 10:06:33;;;;;;;0.60;0.60;;;11.40;99.90;;;;;;4933444;28;20463;-86
2021/12/01 10:09:14;;;;;;;0.30;0.30;;;11.40;99.90;;;;;;4925485;28;20453;-85
2021/12/01 10:12:08;;;;;;;0.40;0.40;;;11.40;99.90;;;;;;4932022;28;20473;-88
2021/12/01 10:14:52;;;;;;;1.90;0.63;;;11.40;99.90;;;;;;4929176;28;20456;-87
2021/12/01 10:17:37;;;;;;;0.60;0.40;;;11.10;99.90;;;;;;4944113;28;20986;-86
2021/12/01 10:20:50;;;;;;;1.23;0.40;;;11.30;99.90;;;;;;4932394;28;20469;-86
2021/12/01 10:23:24;;;;;;;0.43;0.40;;;11.50;99.90;;;;;;4930290;28;20505;-87
2021/12/01 10:25:54;;;;;;;0.50;0.50;;;11.40;99.90;;;;;;4929564;28;20520;-85
2021/12/01 10:28:51;;;;;;;0.40;0.30;;;11.50;99.90;;;;;;4940430;28;20476;-86
2021/12/01 10:31:53;;;;;;;0.30;0.30;;;11.50;99.90;;;;;;4924609;28;20974;-85
2021/12/01 10:34:36;;;;;;;0.87;0.50;;;11.50;99.90;;;;;;4936991;28;20458;-88
2021/12/01 10:37:29;;;;;;;0.40;0.40;;;11.40;99.90;;;;;;4934571;28;20481;-85
2021/12/01 10:40:21;;;;;;;0.50;0.47;;;11.50;99.90;;;;;;4944629;28;20433;-87
2021/12/01 10:45:55;;;;;;;0.50;0.47;;;11.20;99.90;;;;;;4932602;28;20589;-87
2021/12/01 10:48:26;;;;;;;0.60;0.57;;;11.40;99.90;;;;;;4933928;28;21356;-87
2021/12/01 10:51:13;;;;;;;1.43;0.80;;;11.50;99.90;;;;;;4940846;28;20453;-86
2021/12/01 10:54:08;;;;;;;1.10;0.40;;;11.50;99.90;;;;;;4944984;28;20465;-87
2021/12/01 10:56:49;;;;;;;0.50;0.50;;;11.40;99.90;;;;;;4939732;28;20468;-87
2021/12/01 10:59:16;;;;;;;1.80;0.50;;;11.30;99.90;;;;;;4950492;28;20464;-86
2021/12/01 11:04:52;;;;;;;0.50;0.40;;;11.80;99.90;;;;;;4957286;23;20500;-87
2021/12/01 11:07:29;;;;;;;0.60;0.60;;;11.90;99.90;;;;;;4961207;28;20461;-88
2021/12/01 11:10:20;;;;;;;4.20;0.57;;;11.90;99.90;;;;;;4948750;28;20459;-86
2021/12/01 11:13:00;;;;;;;0.70;0.60;;;11.80;99.90;;;;;;4936464;28;20480;-87
2021/12/01 11:15:50;;;;;;;1.00;0.60;;;11.80;99.90;;;;;;4931249;28;20464;-89
2021/12/01 11:18:47;;;;;;;1.00;0.50;;;11.80;99.90;;;;;;4920479;28;20442;-89
2021/12/01 11:21:31;;;;;;;4.47;1.17;;;11.80;99.90;;;;;;4941506;28;20487;-86
2021/12/01 11:24:09;;;;;;;1.43;0.83;;;11.60;99.90;;;;;;4935844;28;20492;-86
2021/12/01 11:26:44;;;;;;;1.37;0.73;;;11.80;99.90;;;;;;4932695;28;20523;-87
2021/12/01 11:29:31;;;;;;;0.80;0.80;;;11.60;99.90;;;;;;4929795;28;20452;-87
2021/12/01 11:32:01;;;;;;;2.17;0.83;;;11.50;99.90;;;;;;4934369;28;21188;-87
2021/12/01 11:34:38;;;;;;;1.10;0.90;;;11.50;99.90;;;;;;4932084;28;20465;-86
2021/12/01 11:37:05;;;;;;;2.33;1.00;;;11.50;99.90;;;;;;4934534;28;20460;-87
2021/12/01 11:39:37;;;;;;;0.73;0.70;;;11.80;99.90;;;;;;4930221;28;20550;-86
2021/12/01 11:42:07;;;;;;;1.43;0.83;;;11.90;99.90;;;;;;4932601;28;20990;-87
2021/12/01 11:44:38;;;;;;;1.83;0.97;;;11.80;99.90;;;;;;4927776;28;20497;-87
2021/12/01 11:47:23;;;;;;;1.37;0.87;;;11.60;99.90;;;;;;4925215;28;20456;-84
2021/12/01 11:49:52;;;;;;;1.00;0.73;;;11.80;99.90;;;;;;4925080;28;20563;-86
2021/12/01 11:52:37;;;;;;;1.10;0.80;;;11.80;99.90;;;;;;4924219;28;20482;-85
2021/12/01 11:55:12;;;;;;;2.53;2.23;;;11.80;99.90;;;;;;4929433;28;20591;-85
2021/12/01 11:57:43;;;;;;;1.40;0.80;;;11.70;99.90;;;;;;4926442;28;20557;-85
2021/12/01 12:00:44;;;;;;;1.67;0.93;;;11.80;99.90;;;;;;4928223;28;21960;-86
2021/12/01 12:03:25;;;;;;;0.67;0.67;;;11.80;99.90;;;;;;4936859;28;20481;-87
2021/12/01 12:06:30;;;;;;;0.50;0.50;;;11.60;99.90;;;;;;4932604;28;20494;-86
2021/12/01 12:08:57;;;;;;;0.50;0.47;;;11.40;99.90;;;;;;4943063;28;20456;-85
2021/12/01 12:11:40;;;;;;;0.40;0.40;;;11.90;99.90;;;;;;4928017;28;20488;-86
2021/12/01 12:14:09;;;;;;;1.97;1.40;;;11.80;99.90;;;;;;4931792;28;20473;-88
2021/12/01 12:16:41;;;;;;;1.13;0.63;;;11.60;99.90;;;;;;4927971;28;20469;-86
2021/12/01 12:19:08;;;;;;;1.50;0.90;;;11.40;99.90;;;;;;4924456;28;20487;-86
2021/12/01 12:21:50;;;;;;;0.67;0.53;;;11.30;99.90;;;;;;4930006;28;20594;-86
2021/12/01 12:24:45;;;;;;;0.80;0.60;;;11.20;99.90;;;;;;4928187;28;21259;-85
2021/12/01 12:27:47;;;;;;;1.70;1.07;;;11.00;99.90;;;;;;4925893;28;20457;-85
2021/12/01 12:30:28;;;;;;;1.40;1.03;;;10.90;99.90;;;;;;4919462;28;20470;-86
2021/12/01 12:33:18;;;;;;;1.40;0.90;;;10.90;99.90;;;;;;4927936;28;20492;-86
2021/12/01 12:36:00;;;;;;;1.03;0.97;;;10.80;99.90;;;;;;4933686;28;20469;-86
2021/12/01 12:41:30;;;;;;;1.07;1.00;;;10.90;99.90;;;;;;4952746;28;21329;-87
2021/12/01 12:44:27;;;;;;;2.33;1.43;;;11.00;99.90;;;;;;4951286;28;20494;-86
2021/12/01 12:47:16;;;;;;;2.50;1.70;;;11.00;99.90;;;;;;4952587;28;20435;-87
2021/12/01 12:49:47;;;;;;;1.77;1.43;;;10.90;99.90;;;;;;4938286;28;21420;-87
2021/12/01 12:52:24;;;;;;;2.40;1.73;;;10.90;99.90;;;;;;4938870;28;20485;-87
2021/12/01 12:55:23;;;;;;;3.20;1.80;;;10.80;99.90;;;;;;4932700;28;20450;-87
2021/12/01 12:57:58;;;;;;;1.60;1.47;;;10.70;99.90;;;;;;4932143;28;20471;-88
2021/12/01 13:00:30;;;;;;;2.70;2.03;;;10.70;99.90;;;;;;4932341;28;20510;-86
2021/12/01 13:03:19;;;;;;;2.47;1.90;;;10.70;99.90;;;;;;4934096;28;20512;-87
2021/12/01 13:05:49;;;;;;;2.50;1.90;;;10.70;99.90;;;;;;4930943;28;20456;-88
2021/12/01 13:08:33;;;;;;;1.77;1.67;;;10.70;99.90;;;;;;4936743;28;20480;-88
2021/12/01 13:11:03;;;;;;;7.07;2.13;;;10.60;99.90;;;;;;4930658;28;20471;-87
2021/12/01 13:13:43;;;;;;;3.07;1.97;;;10.70;99.90;;;;;;4939792;28;20480;-86
2021/12/01 13:16:18;;;;;;;3.33;2.00;;;10.60;99.90;;;;;;4930896;28;20473;-87
2021/12/01 13:18:48;;;;;;;2.30;1.70;;;10.60;99.90;;;;;;4931361;28;20465;-87
2021/12/01 13:21:21;;;;;;;2.60;2.40;;;10.60;99.90;;;;;;4937144;28;20955;-87
2021/12/01 13:23:58;;;;;;;2.00;1.40;;;10.50;99.90;;;;;;4943158;28;20505;-87
2021/12/01 13:26:36;;;;;;;2.57;1.73;;;10.50;99.90;;;;;;4954358;28;20461;-87
2021/12/01 13:29:06;;;;;;;2.87;1.53;;;10.50;99.90;;;;;;4946389;28;20504;-86
2021/12/01 13:31:55;;;;;;;2.30;1.53;;;10.40;99.90;;;;;;4950518;28;20506;-88
2021/12/01 13:34:29;;;;;;;1.70;1.60;;;10.40;99.90;;;;;;4948574;28;20533;-87
2021/12/01 13:37:04;;;;;;;2.97;2.70;;;10.40;99.90;;;;;;4941716;28;21282;-88
2021/12/01 13:39:45;;;;;;;2.30;1.50;;;10.40;99.90;;;;;;4936840;28;20465;-87
2021/12/01 13:42:24;;;;;;;3.10;1.30;;;10.40;99.90;;;;;;4935870;28;20499;-86
2021/12/01 13:44:55;;;;;;;5.50;1.37;;;10.50;99.90;;;;;;4930784;28;20559;-88
2021/12/01 13:47:34;;;;;;;2.20;1.20;;;10.50;99.90;;;;;;4928821;28;20921;-85
2021/12/01 13:50:09;;;;;;;2.13;1.10;;;10.40;99.90;;;;;;4931014;28;20448;-86
2021/12/01 13:52:58;;;;;;;0.90;0.90;;;10.40;99.90;;;;;;4864207;28;20449;-85
2021/12/01 13:55:54;;;;;;;3.27;1.17;;;10.40;99.90;;;;;;4929973;28;20458;-86
2021/12/01 13:58:26;;;;;;;3.70;1.47;;;10.40;99.90;;;;;;4933301;28;20469;-87
2021/12/01 14:01:02;;;;;;;3.23;1.27;;;10.40;99.90;;;;;;4937825;28;20476;-87
2021/12/01 14:03:40;;;;;;;10.77;2.60;;;10.40;99.90;;;;;;4937837;28;20504;-89
2021/12/01 14:06:13;;;;;;;20.00;5.73;;;10.40;99.90;;;;;;4940513;28;20485;-87
2021/12/01 14:08:53;;;;;;;7.90;2.30;;;10.40;99.90;;;;;;4937110;28;20516;-87
2021/12/01 14:11:44;;;;;;;4.10;1.37;;;10.40;99.90;;;;;;4938366;28;20496;-85
2021/12/01 14:14:34;;;;;;;3.93;1.20;;;10.40;99.90;;;;;;4943821;28;20501;-86
2021/12/01 14:17:06;;;;;;;1.93;1.00;;;10.40;99.90;;;;;;4940130;28;20464;-87
2021/12/01 14:19:45;;;;;;;2.87;0.80;;;10.40;99.90;;;;;;4931459;28;20975;-87
2021/12/01 14:22:37;;;;;;;1.70;1.00;;;10.40;99.90;;;;;;4936771;28;22016;-87
2021/12/01 14:25:14;;;;;;;4.30;1.37;;;10.40;99.90;;;;;;4932509;28;20521;-85
2021/12/01 14:28:03;;;;;;;4.97;1.00;;;10.30;99.90;;;;;;4928475;28;20662;-87
2021/12/01 14:30:48;;;;;;;1.97;1.10;;;10.30;99.90;;;;;;4936180;28;20756;-87
2021/12/01 14:33:21;;;;;;;3.00;1.17;;;10.30;99.90;;;;;;4936111;28;20576;-88
2021/12/01 14:36:27;;;;;;;5.30;1.57;;;10.30;99.90;;;;;;4916285;28;20594;-88
2021/12/01 14:38:56;;;;;;;1.47;1.10;;;10.30;99.90;;;;;;4915590;28;20804;-88
2021/12/01 14:41:36;;;;;;;3.60;1.63;;;10.30;99.90;;;;;;4933634;28;20471;-86
2021/12/01 14:44:17;;;;;;;2.07;1.30;;;10.30;99.90;;;;;;4933283;28;20481;-86
2021/12/01 14:47:04;;;;;;;1.90;1.70;;;10.30;99.90;;;;;;4933589;28;20469;-87
2021/12/01 14:49:41;;;;;;;2.63;1.60;;;10.30;99.90;;;;;;4931504;28;22141;-86
2021/12/01 14:52:42;;;;;;;2.17;1.30;;;10.30;99.90;;;;;;4934078;28;20488;-87
2021/12/01 14:55:24;;;;;;;2.30;1.20;;;10.30;99.90;;;;;;4929375;28;20949;-87
2021/12/01 14:58:09;;;;;;;1.67;1.40;;;10.30;99.90;;;;;;4937140;28;20473;-87
2021/12/01 15:00:39;;;;;;;3.43;1.90;;;10.30;99.90;;;;;;4938885;28;20469;-87